createdAt,value
2022-08-08T00:01:13.182Z,23.00
2022-08-08T00:03:58.535Z,23.00
2022-08-08T00:06:35.965Z,23.00
2022-08-08T00:09:08.669Z,23.00
2022-08-08T00:11:46.538Z,23.00
2022-08-08T00:14:57.117Z,22.90
2022-08-08T00:18:02.623Z,22.90
2022-08-08T00:20:34.052Z,22.90
2022-08-08T00:23:09.448Z,22.90
2022-08-08T00:25:46.473Z,22.80
2022-08-08T00:28:35.035Z,22.80
2022-08-08T00:32:15.348Z,22.80
2022-08-08T00:34:20.707Z,22.80
2022-08-08T00:36:54.972Z,22.80
2022-08-08T00:41:08.927Z,22.80
2022-08-08T00:42:58.536Z,22.70
2022-08-08T00:45:59.717Z,22.70
2022-08-08T00:51:42.058Z,22.70
2022-08-08T00:54:28.917Z,22.70
2022-08-08T00:57:19.890Z,22.70
2022-08-08T01:00:11.374Z,22.70
2022-08-08T01:04:00.978Z,22.70
2022-08-08T01:06:08.216Z,22.70
2022-08-08T01:09:02.091Z,22.80
2022-08-08T01:12:06.028Z,22.80
2022-08-08T01:14:54.644Z,22.80
2022-08-08T01:17:52.247Z,22.80
2022-08-08T01:20:38.419Z,22.80
2022-08-08T01:24:02.804Z,22.70
2022-08-08T01:26:49.213Z,22.70
2022-08-08T01:29:59.666Z,22.70
2022-08-08T01:32:44.100Z,22.70
2022-08-08T01:35:38.649Z,22.70
2022-08-08T01:38:29.684Z,22.70
2022-08-08T01:41:04.970Z,22.70
2022-08-08T01:43:54.621Z,22.70
2022-08-08T01:46:41.552Z,22.70
2022-08-08T01:49:23.263Z,22.60
2022-08-08T01:52:53.689Z,22.60
2022-08-08T01:55:45.295Z,22.60
2022-08-08T01:58:13.728Z,22.70
2022-08-08T02:00:48.817Z,22.70
2022-08-08T02:03:57.196Z,22.70
2022-08-08T02:06:32.516Z,22.70
2022-08-08T02:09:17.630Z,22.70
2022-08-08T02:11:59.029Z,22.70
2022-08-08T02:14:34.568Z,22.70
2022-08-08T02:17:23.442Z,22.70
2022-08-08T02:20:07.138Z,22.70
2022-08-08T02:22:52.893Z,22.70
2022-08-08T02:25:32.883Z,22.70
2022-08-08T02:28:18.005Z,22.70
2022-08-08T02:30:57.921Z,22.60
2022-08-08T02:34:07.178Z,22.50
2022-08-08T02:36:41.422Z,22.30
2022-08-08T02:39:42.682Z,22.10
2022-08-08T02:42:42.382Z,22.00
2022-08-08T02:45:29.369Z,21.90
2022-08-08T02:48:18.199Z,21.90
2022-08-08T02:51:12.503Z,21.80
2022-08-08T02:54:05.192Z,21.80
2022-08-08T02:56:54.439Z,21.80
2022-08-08T02:59:57.631Z,21.70
2022-08-08T03:02:50.517Z,21.70
2022-08-08T03:05:45.099Z,21.60
2022-08-08T03:08:36.481Z,21.60
2022-08-08T03:11:47.504Z,21.50
2022-08-08T03:15:59.173Z,21.50
2022-08-08T03:17:39.910Z,21.50
2022-08-08T03:20:12.126Z,21.50
2022-08-08T03:22:47.514Z,21.60
2022-08-08T03:25:19.166Z,21.60
2022-08-08T03:27:57.091Z,21.60
2022-08-08T03:30:27.087Z,21.60
2022-08-08T03:33:54.904Z,21.60
2022-08-08T03:36:19.868Z,21.60
2022-08-08T03:39:14.737Z,21.60
2022-08-08T03:42:27.355Z,21.60
2022-08-08T03:44:38.693Z,21.70
2022-08-08T03:47:19.531Z,21.70
2022-08-08T03:50:00.793Z,21.70
2022-08-08T03:52:33.769Z,21.70
2022-08-08T03:55:55.107Z,21.70
2022-08-08T03:58:35.176Z,21.70
2022-08-08T04:01:02.262Z,21.70
2022-08-08T04:03:59.182Z,21.70
2022-08-08T04:06:31.368Z,21.80
2022-08-08T04:09:06.744Z,21.80
2022-08-08T04:11:48.426Z,21.80
2022-08-08T04:14:34.293Z,21.80
2022-08-08T04:17:15.484Z,21.90
2022-08-08T04:19:52.888Z,21.90
2022-08-08T04:22:24.244Z,22.00
2022-08-08T04:24:59.403Z,22.00
2022-08-08T04:28:03.381Z,22.00
2022-08-08T04:30:23.252Z,22.00
2022-08-08T04:32:53.631Z,22.00
2022-08-08T04:35:23.526Z,22.00
2022-08-08T04:37:53.207Z,22.10
2022-08-08T04:40:25.357Z,22.10
2022-08-08T04:43:01.621Z,22.10
2022-08-08T04:45:31.768Z,22.10
2022-08-08T04:48:03.717Z,22.00
2022-08-08T04:50:38.647Z,22.00
2022-08-08T04:53:14.065Z,22.00
2022-08-08T04:55:58.195Z,22.00
2022-08-08T04:58:30.816Z,21.90
2022-08-08T05:01:00.400Z,22.00
2022-08-08T05:04:09.118Z,22.00
2022-08-08T05:06:29.280Z,21.90
2022-08-08T05:09:02.327Z,21.90
2022-08-08T05:11:39.716Z,21.90
2022-08-08T05:14:14.918Z,21.80
2022-08-08T05:16:51.309Z,21.90
2022-08-08T05:20:08.909Z,21.90
2022-08-08T05:22:12.742Z,21.90
2022-08-08T05:24:42.231Z,21.80
2022-08-08T05:27:18.786Z,21.70
2022-08-08T05:29:52.083Z,21.70
2022-08-08T05:32:26.942Z,21.70
2022-08-08T05:35:01.835Z,21.60
2022-08-08T05:37:53.490Z,21.60
2022-08-08T05:40:58.038Z,21.50
2022-08-08T05:44:02.800Z,21.50
2022-08-08T05:46:21.299Z,21.40
2022-08-08T05:48:54.884Z,21.30
2022-08-08T05:51:24.741Z,21.20
2022-08-08T05:54:28.688Z,21.20
2022-08-08T05:56:48.331Z,21.20
2022-08-08T06:00:00.822Z,21.10
2022-08-08T06:02:34.932Z,21.00
2022-08-08T06:05:35.503Z,21.00
2022-08-08T06:08:02.575Z,21.00
2022-08-08T06:10:40.917Z,20.90
2022-08-08T06:13:12.476Z,20.90
2022-08-08T06:15:53.442Z,20.80
2022-08-08T06:18:27.318Z,20.80
2022-08-08T06:20:57.977Z,20.70
2022-08-08T06:23:49.013Z,20.60
2022-08-08T06:26:44.839Z,20.50
2022-08-08T06:29:26.610Z,20.40
2022-08-08T06:32:10.702Z,20.30
2022-08-08T06:34:56.098Z,20.20
2022-08-08T06:37:37.122Z,20.10
2022-08-08T06:40:12.848Z,20.10
2022-08-08T06:42:57.885Z,20.00
2022-08-08T06:45:28.924Z,20.00
2022-08-08T06:48:01.834Z,19.90
2022-08-08T06:50:38.219Z,19.90
2022-08-08T06:53:17.329Z,19.80
2022-08-08T06:56:02.429Z,19.80
2022-08-08T06:58:34.035Z,19.70
2022-08-08T07:01:24.532Z,19.70
2022-08-08T07:04:40.301Z,19.70
2022-08-08T07:06:52.832Z,19.50
2022-08-08T07:09:27.095Z,19.40
2022-08-08T07:12:12.588Z,19.20
2022-08-08T07:14:51.648Z,19.00
2022-08-08T07:17:22.574Z,18.80
2022-08-08T07:19:59.821Z,18.70
2022-08-08T07:22:40.902Z,18.40
2022-08-08T07:25:14.434Z,18.30
2022-08-08T07:28:02.833Z,18.10
2022-08-08T07:30:37.909Z,17.90
2022-08-08T07:33:10.191Z,17.80
2022-08-08T07:35:54.377Z,17.80
2022-08-08T07:38:28.939Z,17.60
2022-08-08T07:41:04.449Z,17.50
2022-08-08T07:43:37.487Z,17.40
2022-08-08T07:46:23.681Z,17.40
2022-08-08T07:48:54.496Z,17.40
2022-08-08T07:51:45.101Z,17.40
2022-08-08T07:54:26.972Z,17.40
2022-08-08T07:57:02.058Z,17.30
2022-08-08T07:59:37.746Z,17.20
2022-08-08T08:02:35.347Z,17.10
2022-08-08T08:05:00.464Z,17.10
2022-08-08T08:07:38.806Z,17.00
2022-08-08T08:10:13.095Z,17.00
2022-08-08T08:12:44.558Z,17.00
2022-08-08T08:15:21.546Z,16.90
2022-08-08T08:17:55.485Z,16.90
2022-08-08T08:20:30.443Z,16.80
2022-08-08T08:23:00.571Z,16.80
2022-08-08T08:25:43.079Z,16.80
2022-08-08T08:28:23.682Z,16.70
2022-08-08T08:30:54.282Z,16.70
2022-08-08T08:33:24.226Z,16.80
2022-08-08T08:36:20.630Z,16.80
2022-08-08T08:38:49.250Z,16.80
2022-08-08T08:41:22.380Z,16.80
2022-08-08T08:44:13.352Z,16.80
2022-08-08T08:46:45.552Z,16.80
2022-08-08T08:49:18.157Z,16.70
2022-08-08T08:51:51.660Z,16.70
2022-08-08T08:54:25.373Z,16.70
2022-08-08T08:56:57.358Z,16.70
2022-08-08T09:00:00.033Z,16.70
2022-08-08T09:02:22.689Z,16.70
2022-08-08T09:04:57.505Z,16.70
2022-08-08T09:07:39.607Z,16.70
2022-08-08T09:10:18.331Z,16.60
2022-08-08T09:12:51.415Z,16.60
2022-08-08T09:15:41.368Z,16.70
2022-08-08T09:18:11.134Z,16.70
2022-08-08T09:21:58.547Z,16.70
2022-08-08T09:23:38.184Z,16.60
2022-08-08T09:26:15.025Z,16.70
2022-08-08T09:28:46.751Z,16.60
2022-08-08T09:31:17.773Z,16.60
2022-08-08T09:34:14.746Z,16.50
2022-08-08T09:37:10.161Z,16.50
2022-08-08T09:39:33.043Z,16.50
2022-08-08T09:42:19.886Z,16.50
2022-08-08T09:45:04.229Z,16.50
2022-08-08T09:48:09.985Z,16.60
2022-08-08T09:50:36.548Z,16.50
2022-08-08T09:53:31.748Z,16.50
2022-08-08T09:56:09.367Z,16.50
2022-08-08T09:58:44.948Z,16.50
2022-08-08T10:02:01.931Z,16.50
2022-08-08T10:04:11.250Z,16.50
2022-08-08T10:06:44.907Z,16.60
2022-08-08T10:09:14.886Z,16.50
2022-08-08T10:12:26.038Z,16.50
2022-08-08T10:14:41.598Z,16.40
2022-08-08T10:17:57.458Z,16.40
2022-08-08T10:20:04.570Z,16.30
2022-08-08T10:22:35.978Z,16.30
2022-08-08T10:25:15.817Z,16.20
2022-08-08T10:27:46.959Z,16.20
2022-08-08T10:31:00.553Z,16.10
2022-08-08T10:33:12.331Z,16.10
2022-08-08T10:36:08.437Z,16.10
2022-08-08T10:38:33.366Z,16.00
2022-08-08T10:41:05.081Z,16.00
2022-08-08T10:43:43.125Z,15.90
2022-08-08T10:46:30.268Z,15.90
2022-08-08T10:49:03.320Z,15.90
2022-08-08T10:51:47.353Z,15.90
2022-08-08T10:54:25.137Z,15.80
2022-08-08T10:57:00.232Z,15.80
2022-08-08T10:59:30.863Z,15.80
2022-08-08T11:02:01.660Z,15.80
2022-08-08T11:04:38.992Z,15.90
2022-08-08T11:07:15.002Z,15.90
2022-08-08T11:09:59.015Z,15.90
2022-08-08T11:12:29.440Z,15.90
2022-08-08T11:15:01.103Z,15.90
2022-08-08T11:18:00.421Z,15.90
2022-08-08T11:20:27.408Z,15.90
2022-08-08T11:22:59.027Z,15.90
2022-08-08T11:25:46.207Z,15.90
2022-08-08T11:28:21.402Z,15.90
2022-08-08T11:30:52.814Z,15.90
2022-08-08T11:33:51.839Z,15.80
2022-08-08T11:36:17.051Z,15.90
2022-08-08T11:38:55.216Z,15.90
2022-08-08T11:41:28.182Z,15.90
2022-08-08T11:44:03.701Z,15.90
2022-08-08T11:46:35.401Z,15.90
2022-08-08T11:49:09.886Z,15.90
2022-08-08T11:51:50.282Z,15.80
2022-08-08T11:54:33.481Z,15.90
2022-08-08T11:57:17.434Z,15.90
2022-08-08T12:00:00.649Z,15.90
2022-08-08T12:02:34.774Z,16.00
2022-08-08T12:05:05.925Z,16.00
2022-08-08T12:07:51.443Z,16.00
2022-08-08T12:10:24.645Z,16.10
2022-08-08T12:13:03.876Z,16.10
2022-08-08T12:15:42.090Z,16.10
2022-08-08T12:18:21.695Z,16.00
2022-08-08T12:20:56.558Z,16.00
2022-08-08T12:23:43.986Z,16.00
2022-08-08T12:26:28.201Z,16.00
2022-08-08T12:29:21.245Z,15.90
2022-08-08T12:32:13.645Z,15.90
2022-08-08T12:34:53.728Z,15.80
2022-08-08T12:37:41.098Z,15.80
2022-08-08T12:40:22.962Z,15.80
2022-08-08T12:42:56.290Z,15.80
2022-08-08T12:45:58.582Z,15.90
2022-08-08T12:48:38.080Z,15.80
2022-08-08T12:51:11.270Z,15.80
2022-08-08T12:53:47.055Z,15.80
2022-08-08T12:56:24.178Z,15.80
2022-08-08T12:58:55.669Z,15.80
2022-08-08T13:01:36.968Z,15.90
2022-08-08T13:04:18.787Z,15.90
2022-08-08T13:07:01.311Z,16.00
2022-08-08T13:10:00.596Z,16.00
2022-08-08T13:12:29.272Z,16.10
2022-08-08T13:15:03.096Z,16.10
2022-08-08T13:17:53.906Z,16.10
2022-08-08T13:20:27.313Z,16.10
2022-08-08T13:25:50.954Z,15.90
2022-08-08T13:28:32.736Z,15.90
2022-08-08T13:31:05.102Z,15.90
2022-08-08T13:33:41.869Z,15.90
2022-08-08T13:36:13.701Z,15.80
2022-08-08T13:38:43.412Z,15.80
2022-08-08T13:41:16.820Z,15.80
2022-08-08T13:43:49.736Z,15.70
2022-08-08T13:46:27.352Z,15.80
2022-08-08T13:50:33.256Z,15.90
2022-08-08T13:51:59.096Z,15.90
2022-08-08T13:54:32.339Z,15.90
2022-08-08T13:57:02.742Z,15.90
2022-08-08T13:59:33.754Z,15.80
2022-08-08T14:02:12.477Z,15.70
2022-08-08T14:04:53.047Z,15.80
2022-08-08T14:07:25.620Z,15.90
2022-08-08T14:10:05.762Z,15.90
2022-08-08T14:12:43.793Z,15.90
2022-08-08T14:15:31.371Z,16.00
2022-08-08T14:18:35.762Z,16.00
2022-08-08T14:21:15.193Z,16.00
2022-08-08T14:24:03.908Z,16.00
2022-08-08T14:26:38.927Z,16.00
2022-08-08T14:29:30.197Z,16.00
2022-08-08T14:32:09.478Z,16.00
2022-08-08T14:34:45.396Z,16.00
2022-08-08T14:37:18.692Z,16.00
2022-08-08T14:39:53.838Z,16.00
2022-08-08T14:42:34.113Z,16.00
2022-08-08T14:45:04.532Z,16.00
2022-08-08T14:47:51.336Z,16.10
2022-08-08T14:50:38.048Z,16.10
2022-08-08T14:53:14.215Z,16.10
2022-08-08T14:55:45.116Z,16.20
2022-08-08T14:58:16.236Z,16.30
2022-08-08T15:00:47.883Z,16.30
2022-08-08T15:03:18.381Z,16.20
2022-08-08T15:05:53.754Z,16.20
2022-08-08T15:08:35.620Z,16.20
2022-08-08T15:11:09.102Z,16.20
2022-08-08T15:14:01.995Z,16.20
2022-08-08T15:16:34.585Z,16.20
2022-08-08T15:19:05.083Z,16.20
2022-08-08T15:21:42.459Z,16.20
2022-08-08T15:24:16.184Z,16.20
2022-08-08T15:26:52.852Z,16.20
2022-08-08T15:29:24.482Z,16.20
2022-08-08T15:32:18.940Z,16.30
2022-08-08T15:34:44.847Z,16.30
2022-08-08T15:37:17.231Z,16.30
2022-08-08T15:39:47.979Z,16.30
2022-08-08T15:42:41.871Z,16.40
2022-08-08T15:45:08.997Z,16.40
2022-08-08T15:47:38.814Z,16.40
2022-08-08T15:50:16.971Z,16.40
2022-08-08T15:52:53.604Z,16.50
2022-08-08T15:55:23.055Z,16.60
2022-08-08T15:57:52.613Z,16.60
2022-08-08T16:00:28.032Z,16.50
2022-08-08T16:02:59.057Z,16.60
2022-08-08T16:05:35.989Z,16.70
2022-08-08T16:08:20.892Z,16.70
2022-08-08T16:13:21.333Z,16.80
2022-08-08T16:13:45.917Z,16.70
2022-08-08T16:16:17.995Z,16.70
2022-08-08T16:18:57.432Z,16.80
2022-08-08T16:21:28.631Z,16.80
2022-08-08T16:24:01.006Z,16.80
2022-08-08T16:26:34.018Z,16.80
2022-08-08T16:29:07.769Z,16.80
2022-08-08T16:31:40.996Z,16.80
2022-08-08T16:34:11.429Z,16.80
2022-08-08T16:36:41.267Z,16.70
2022-08-08T16:39:27.829Z,16.70
2022-08-08T16:42:04.017Z,16.60
2022-08-08T16:44:34.691Z,16.60
2022-08-08T16:47:21.589Z,16.60
2022-08-08T16:49:54.431Z,16.60
2022-08-08T16:55:03.014Z,16.60
2022-08-08T16:55:42.674Z,16.60
2022-08-08T16:58:15.622Z,16.60
2022-08-08T17:00:48.724Z,16.70
2022-08-08T17:03:25.137Z,16.70
2022-08-08T17:06:39.595Z,16.80
2022-08-08T17:09:00.144Z,16.90
2022-08-08T17:11:39.355Z,17.00
2022-08-08T17:14:27.039Z,17.00
2022-08-08T17:17:01.680Z,17.00
2022-08-08T17:19:37.367Z,17.00
2022-08-08T17:22:10.809Z,17.00
2022-08-08T17:24:42.182Z,17.00
2022-08-08T17:27:13.531Z,17.00
2022-08-08T17:29:56.774Z,17.00
2022-08-08T17:32:28.808Z,17.00
2022-08-08T17:35:55.302Z,17.10
2022-08-08T17:37:54.980Z,17.20
2022-08-08T17:40:25.434Z,17.30
2022-08-08T17:42:58.816Z,17.20
2022-08-08T17:45:28.545Z,17.30
2022-08-08T17:48:02.617Z,17.30
2022-08-08T17:50:33.614Z,17.40
2022-08-08T17:53:03.135Z,17.30
2022-08-08T17:56:05.190Z,17.50
2022-08-08T17:58:28.477Z,17.50
2022-08-08T18:00:57.976Z,17.60
2022-08-08T18:03:27.678Z,17.70
2022-08-08T18:05:57.590Z,17.80
2022-08-08T18:08:40.942Z,17.90
2022-08-08T18:11:15.145Z,17.90
2022-08-08T18:13:48.112Z,17.80
2022-08-08T18:16:23.078Z,17.80
2022-08-08T18:18:56.279Z,17.80
2022-08-08T18:21:59.507Z,17.80
2022-08-08T18:24:21.700Z,17.90
2022-08-08T18:26:53.942Z,17.80
2022-08-08T18:29:29.727Z,17.90
2022-08-08T18:32:00.160Z,17.80
2022-08-08T18:34:33.418Z,17.90
2022-08-08T18:37:08.310Z,17.90
2022-08-08T18:39:42.013Z,17.90
2022-08-08T18:42:16.432Z,17.90
2022-08-08T18:44:55.230Z,18.00
2022-08-08T18:47:26.165Z,18.00
2022-08-08T18:49:58.543Z,18.00
2022-08-08T18:52:30.526Z,18.00
2022-08-08T18:55:09.586Z,17.90
2022-08-08T18:57:44.748Z,18.00
2022-08-08T19:00:20.468Z,17.90
2022-08-08T19:02:55.446Z,17.90
2022-08-08T19:05:34.906Z,17.90
2022-08-08T19:08:25.268Z,18.00
2022-08-08T19:10:59.263Z,17.90
2022-08-08T19:13:52.860Z,17.90
2022-08-08T19:16:20.703Z,17.80
2022-08-08T19:19:01.956Z,17.80
2022-08-08T19:21:49.421Z,17.80
2022-08-08T19:24:39.371Z,17.80
2022-08-08T19:27:10.772Z,17.80
2022-08-08T19:29:45.620Z,17.70
2022-08-08T19:32:19.604Z,17.60
2022-08-08T19:34:51.728Z,17.70
2022-08-08T19:37:42.325Z,17.70
2022-08-08T19:40:15.971Z,17.80
2022-08-08T19:42:46.421Z,17.70
2022-08-08T19:45:58.829Z,17.60
2022-08-08T19:48:29.150Z,17.70
2022-08-08T19:50:59.333Z,17.70
2022-08-08T19:53:51.010Z,17.80
2022-08-08T19:56:25.892Z,17.80
2022-08-08T19:59:08.336Z,17.90
2022-08-08T20:01:59.713Z,17.90
2022-08-08T20:04:29.333Z,18.00
2022-08-08T20:06:59.274Z,18.00
2022-08-08T20:09:36.492Z,18.10
2022-08-08T20:12:14.917Z,18.10
2022-08-08T20:15:02.478Z,18.20
2022-08-08T20:17:45.159Z,18.30
2022-08-08T20:20:19.457Z,18.30
2022-08-08T20:22:53.887Z,18.30
2022-08-08T20:25:29.978Z,18.50
2022-08-08T20:28:06.484Z,18.60
2022-08-08T20:30:55.894Z,18.70
2022-08-08T20:36:03.538Z,18.70
2022-08-08T20:38:38.160Z,18.50
2022-08-08T20:41:17.730Z,18.50
2022-08-08T20:43:49.603Z,18.30
2022-08-08T20:46:25.339Z,18.30
2022-08-08T20:48:58.393Z,18.50
2022-08-08T20:51:32.458Z,18.60
2022-08-08T20:54:14.383Z,18.70
2022-08-08T20:57:16.683Z,18.70
2022-08-08T20:59:42.757Z,18.60
2022-08-08T21:02:14.409Z,18.50
2022-08-08T21:04:50.197Z,18.40
2022-08-08T21:07:47.726Z,18.20
2022-08-08T21:10:13.155Z,18.20
2022-08-08T21:12:44.633Z,18.10
2022-08-08T21:16:05.426Z,18.10
2022-08-08T21:18:05.762Z,18.10
2022-08-08T21:20:35.201Z,18.00
2022-08-08T21:23:10.065Z,18.10
2022-08-08T21:25:42.844Z,18.10
2022-08-08T21:28:16.217Z,18.10
2022-08-08T21:30:51.924Z,18.10
2022-08-08T21:33:22.111Z,18.00
2022-08-08T21:36:13.819Z,17.90
2022-08-08T21:38:43.635Z,17.70
2022-08-08T21:41:29.053Z,17.60
2022-08-08T21:44:04.553Z,17.50
2022-08-08T21:48:06.371Z,17.40
2022-08-08T21:49:25.172Z,17.40
2022-08-08T21:54:36.814Z,17.40
2022-08-08T21:55:03.102Z,17.40
2022-08-08T21:57:42.148Z,17.40
2022-08-08T22:00:14.251Z,17.40
2022-08-08T22:02:44.555Z,17.40
2022-08-08T22:05:15.344Z,17.30
2022-08-08T22:07:48.076Z,17.30
2022-08-08T22:10:32.055Z,17.30
2022-08-08T22:13:18.311Z,17.30
2022-08-08T22:15:58.624Z,17.20
2022-08-08T22:18:30.814Z,17.30
2022-08-08T22:21:14.186Z,17.20
2022-08-08T22:23:51.494Z,17.20
2022-08-08T22:26:28.648Z,17.20
2022-08-08T22:29:13.589Z,17.20
2022-08-08T22:31:58.382Z,17.20
2022-08-08T22:34:32.158Z,17.20
2022-08-08T22:37:01.818Z,17.20
2022-08-08T22:39:45.941Z,17.20
2022-08-08T22:42:27.577Z,17.20
2022-08-08T22:45:01.857Z,17.20
2022-08-08T22:47:37.616Z,17.20
2022-08-08T22:50:27.141Z,17.20
2022-08-08T22:54:19.592Z,17.20
2022-08-08T22:55:57.639Z,17.20
2022-08-08T22:58:33.062Z,17.20
2022-08-08T23:01:16.215Z,17.20
2022-08-08T23:03:55.788Z,17.20
2022-08-08T23:06:26.207Z,17.10
2022-08-08T23:08:58.706Z,17.10
2022-08-08T23:12:29.187Z,17.10
2022-08-08T23:14:22.153Z,17.10
2022-08-08T23:16:59.806Z,17.10
2022-08-08T23:19:30.865Z,17.10
2022-08-08T23:22:04.410Z,17.10
2022-08-08T23:24:36.842Z,17.00
2022-08-08T23:27:11.274Z,17.00
2022-08-08T23:30:03.665Z,17.00
2022-08-08T23:32:34.298Z,17.00
2022-08-08T23:35:08.323Z,16.90
2022-08-08T23:38:01.757Z,16.90
2022-08-08T23:40:32.936Z,16.90
2022-08-08T23:43:04.553Z,16.80
2022-08-08T23:49:01.958Z,16.80
2022-08-08T23:49:03.601Z,16.80
2022-08-08T23:51:41.879Z,16.80
2022-08-08T23:54:41.858Z,16.70
2022-08-08T23:56:55.530Z,16.70
2022-08-08T23:59:26.010Z,16.70
